Time;durP1;ratioP1;P1;durP2;ratioP2;P2;SDS_P1;SDS_P2;PMS_P1;PMS_P2;Temp;Humidity;BMP_temperature;BMP_pressure;BME280_temperature;BME280_humidity;BME280_pressure;Samples;Min_cycle;Max_cycle;Signal;HPM_P1;HPM_P2
2023/06/28 00:00:05;;;;;;;9.43;5.53;;;12.20;99.90;;;;;;4155317;28;20235;-75
2023/06/28 00:02:10;;;;;;;12.97;5.80;;;12.20;99.90;;;;;;4161576;28;20298;-74
2023/06/28 00:04:12;;;;;;;6.60;5.03;;;12.20;99.90;;;;;;4164186;28;20213;-74
2023/06/28 00:06:14;;;;;;;8.37;5.20;;;12.30;99.90;;;;;;4162577;28;20753;-75
2023/06/28 00:08:16;;;;;;;10.00;5.17;;;12.20;99.90;;;;;;4161489;28;20301;-75
2023/06/28 00:10:18;;;;;;;10.60;5.33;;;12.20;99.90;;;;;;4154178;28;20232;-74
2023/06/28 00:12:21;;;;;;;11.03;5.80;;;12.20;99.90;;;;;;4153514;28;20224;-75
2023/06/28 00:14:23;;;;;;;9.80;5.33;;;12.10;99.90;;;;;;4158932;28;20225;-76
2023/06/28 00:16:24;;;;;;;9.83;5.83;;;12.10;99.90;;;;;;4159999;28;20238;-75
2023/06/28 00:18:30;;;;;;;8.33;4.77;;;12.10;99.90;;;;;;4159546;28;20242;-75
2023/06/28 00:20:31;;;;;;;10.63;5.30;;;12.10;99.90;;;;;;4159089;28;20230;-75
2023/06/28 00:22:34;;;;;;;10.63;5.97;;;12.10;99.90;;;;;;4160390;28;20214;-75
2023/06/28 00:24:35;;;;;;;14.33;5.30;;;12.10;99.90;;;;;;4159591;28;20213;-74
2023/06/28 00:26:37;;;;;;;14.63;6.17;;;12.10;99.90;;;;;;4159539;28;20234;-74
2023/06/28 00:28:39;;;;;;;9.10;5.30;;;12.10;99.90;;;;;;4158743;28;20217;-76
2023/06/28 00:30:41;;;;;;;7.90;5.73;;;12.00;99.90;;;;;;4156743;28;20295;-75
2023/06/28 00:32:43;;;;;;;9.70;6.00;;;12.00;99.90;;;;;;4163835;28;20674;-75
2023/06/28 00:34:46;;;;;;;14.53;6.07;;;12.00;99.90;;;;;;4164478;28;20715;-76
2023/06/28 00:36:48;;;;;;;9.67;5.73;;;12.00;99.90;;;;;;4161148;28;20777;-75
2023/06/28 00:38:52;;;;;;;14.53;6.20;;;11.90;99.90;;;;;;4154062;28;20304;-75
2023/06/28 00:40:54;;;;;;;13.87;6.13;;;12.00;99.90;;;;;;4159429;28;20235;-75
2023/06/28 00:42:55;;;;;;;16.43;6.70;;;12.00;99.90;;;;;;4162311;28;20215;-75
2023/06/28 00:44:57;;;;;;;12.37;6.30;;;12.00;99.90;;;;;;4168897;28;20705;-76
2023/06/28 00:47:01;;;;;;;12.83;6.33;;;12.00;99.90;;;;;;4163994;28;20245;-75
2023/06/28 00:49:03;;;;;;;9.13;6.00;;;12.00;99.90;;;;;;4158965;28;20218;-75
2023/06/28 00:51:07;;;;;;;9.33;5.83;;;12.00;99.90;;;;;;4161103;28;20242;-75
2023/06/28 00:53:09;;;;;;;11.77;6.33;;;12.00;99.90;;;;;;4163806;28;20213;-75
2023/06/28 00:55:13;;;;;;;8.93;6.00;;;12.00;99.90;;;;;;4162926;28;20209;-74
2023/06/28 00:57:15;;;;;;;12.47;5.83;;;12.00;99.90;;;;;;4161467;28;20230;-75
2023/06/28 00:59:17;;;;;;;7.90;5.70;;;12.00;99.90;;;;;;4158678;28;20294;-74
2023/06/28 01:01:19;;;;;;;11.87;6.23;;;12.00;99.90;;;;;;4162461;28;20268;-74
2023/06/28 01:03:21;;;;;;;10.27;5.70;;;12.00;99.90;;;;;;4160782;28;20763;-74
2023/06/28 01:05:23;;;;;;;9.07;5.73;;;12.10;99.90;;;;;;4159098;28;20211;-75
2023/06/28 01:07:27;;;;;;;10.63;5.90;;;12.00;99.90;;;;;;4158699;28;20244;-76
2023/06/28 01:09:30;;;;;;;12.00;5.20;;;12.10;99.90;;;;;;4158265;28;20656;-75
2023/06/28 01:11:32;;;;;;;11.17;5.90;;;12.10;99.90;;;;;;4160608;28;20593;-74
2023/06/28 01:13:36;;;;;;;13.07;6.50;;;12.10;99.90;;;;;;4162809;28;20208;-74
2023/06/28 01:15:38;;;;;;;8.33;5.33;;;12.10;99.90;;;;;;4163397;28;20206;-75
2023/06/28 01:17:40;;;;;;;8.23;5.80;;;12.10;99.90;;;;;;4159930;28;20222;-75
2023/06/28 01:19:42;;;;;;;16.17;6.30;;;12.20;99.90;;;;;;4159574;28;20211;-75
2023/06/28 01:21:49;;;;;;;13.83;6.17;;;12.20;99.90;;;;;;4161400;28;20672;-75
2023/06/28 01:23:52;;;;;;;9.47;6.03;;;12.20;99.90;;;;;;4158263;28;20215;-76
2023/06/28 01:25:56;;;;;;;8.20;5.40;;;12.10;99.90;;;;;;4164238;28;20610;-76
2023/06/28 01:27:58;;;;;;;9.90;6.00;;;12.10;99.90;;;;;;4162211;28;20215;-74
2023/06/28 01:30:00;;;;;;;9.07;5.90;;;12.10;99.90;;;;;;4157888;28;20211;-75
2023/06/28 01:32:05;;;;;;;8.80;6.13;;;12.10;99.90;;;;;;4158567;28;20312;-75
2023/06/28 01:34:07;;;;;;;11.03;6.77;;;12.10;99.90;;;;;;4158411;28;20711;-75
2023/06/28 01:36:09;;;;;;;15.63;7.53;;;12.10;99.90;;;;;;4158715;28;20241;-75
2023/06/28 01:38:13;;;;;;;11.27;6.07;;;12.20;99.90;;;;;;4157203;28;20228;-76
2023/06/28 01:40:17;;;;;;;16.23;7.20;;;12.10;99.90;;;;;;4154542;28;20234;-73
2023/06/28 01:42:20;;;;;;;15.10;7.10;;;12.20;99.90;;;;;;4155920;28;20249;-75
2023/06/28 01:44:22;;;;;;;11.63;6.43;;;12.10;99.90;;;;;;4155795;28;20206;-75
2023/06/28 01:46:24;;;;;;;12.47;6.80;;;12.20;99.90;;;;;;4160699;28;20240;-76
2023/06/28 01:48:27;;;;;;;16.53;6.60;;;12.10;99.90;;;;;;4161394;28;20213;-75
2023/06/28 01:50:29;;;;;;;14.27;7.43;;;12.20;99.90;;;;;;4161932;28;20256;-75
2023/06/28 01:52:31;;;;;;;12.33;6.27;;;12.10;99.90;;;;;;4162448;28;20214;-76
2023/06/28 01:54:34;;;;;;;16.67;7.33;;;12.10;99.90;;;;;;4160529;28;20211;-74
2023/06/28 01:56:37;;;;;;;12.27;7.20;;;12.10;99.90;;;;;;4161226;28;20330;-75
2023/06/28 01:58:39;;;;;;;9.43;7.37;;;12.10;99.90;;;;;;4158622;28;20210;-74
2023/06/28 02:00:41;;;;;;;12.70;6.77;;;12.10;99.90;;;;;;4160137;28;20236;-75
2023/06/28 02:02:43;;;;;;;15.30;6.77;;;12.00;99.90;;;;;;4162437;28;20211;-76
2023/06/28 02:04:46;;;;;;;15.87;6.73;;;12.00;99.90;;;;;;4164119;28;20213;-76
2023/06/28 02:06:48;;;;;;;10.70;6.70;;;12.10;99.90;;;;;;4160997;28;20238;-75
2023/06/28 02:08:50;;;;;;;13.10;6.87;;;12.00;99.90;;;;;;4155506;28;20210;-75
2023/06/28 02:10:52;;;;;;;10.53;6.53;;;12.00;99.90;;;;;;4157673;28;20301;-76
2023/06/28 02:12:55;;;;;;;8.27;6.40;;;12.00;99.90;;;;;;4162033;28;20329;-75
2023/06/28 02:14:57;;;;;;;9.37;6.00;;;12.00;99.90;;;;;;4163957;28;21194;-76
2023/06/28 02:16:59;;;;;;;11.20;6.23;;;12.00;99.90;;;;;;4164127;28;20256;-76
2023/06/28 02:19:02;;;;;;;12.00;7.13;;;12.00;99.90;;;;;;4159771;28;20314;-76
2023/06/28 02:21:04;;;;;;;11.77;6.90;;;12.00;99.90;;;;;;4157059;28;20700;-75
2023/06/28 02:23:05;;;;;;;11.83;6.93;;;12.00;99.90;;;;;;4160256;28;20284;-73
2023/06/28 02:25:08;;;;;;;10.77;6.47;;;11.90;99.90;;;;;;4158806;28;20236;-75
2023/06/28 02:27:10;;;;;;;10.10;6.10;;;11.90;99.90;;;;;;4158151;28;20601;-75
2023/06/28 02:29:13;;;;;;;8.37;5.60;;;11.90;99.90;;;;;;4161126;28;20668;-75
2023/06/28 02:31:16;;;;;;;11.97;6.07;;;11.90;99.90;;;;;;4163748;28;20260;-75
2023/06/28 02:33:18;;;;;;;8.27;5.13;;;11.90;99.90;;;;;;4161359;28;20243;-75
2023/06/28 02:35:20;;;;;;;7.10;5.40;;;11.90;99.90;;;;;;4163130;28;20214;-76
2023/06/28 02:37:21;;;;;;;11.77;6.30;;;11.80;99.90;;;;;;4162652;28;20262;-75
2023/06/28 02:39:24;;;;;;;12.60;5.97;;;11.80;99.90;;;;;;4159300;28;20213;-76
2023/06/28 02:41:26;;;;;;;10.40;5.60;;;11.80;99.90;;;;;;4160350;28;20270;-77
2023/06/28 02:43:27;;;;;;;7.47;5.10;;;11.80;99.90;;;;;;4160640;28;20296;-76
2023/06/28 02:45:31;;;;;;;12.87;5.73;;;11.80;99.90;;;;;;4161781;28;20321;-75
2023/06/28 02:47:32;;;;;;;10.03;6.03;;;11.70;99.90;;;;;;4158252;28;20248;-76
2023/06/28 02:49:34;;;;;;;13.17;6.47;;;11.70;99.90;;;;;;4157105;28;20234;-74
2023/06/28 02:51:36;;;;;;;12.97;6.83;;;11.70;99.90;;;;;;4159318;28;20219;-74
2023/06/28 02:53:38;;;;;;;12.07;6.63;;;11.70;99.90;;;;;;4160541;28;20308;-76
2023/06/28 02:55:40;;;;;;;9.90;6.03;;;11.70;99.90;;;;;;4161027;28;20300;-76
2023/06/28 02:57:43;;;;;;;8.43;6.10;;;11.70;99.90;;;;;;4157952;28;20212;-76
2023/06/28 02:59:45;;;;;;;14.23;6.80;;;11.70;99.90;;;;;;4160045;28;20246;-75
2023/06/28 03:01:48;;;;;;;10.20;6.40;;;11.70;99.90;;;;;;4156211;28;20254;-74
2023/06/28 03:03:50;;;;;;;8.87;6.33;;;11.70;99.90;;;;;;4156003;28;20859;-76
2023/06/28 03:05:52;;;;;;;15.87;7.83;;;11.60;99.90;;;;;;4158851;28;20316;-76
2023/06/28 03:07:54;;;;;;;13.93;6.93;;;11.60;99.90;;;;;;4154230;28;20289;-75
2023/06/28 03:09:55;;;;;;;12.73;7.10;;;11.60;99.90;;;;;;4161491;28;20212;-77
2023/06/28 03:11:57;;;;;;;16.30;7.20;;;11.60;99.90;;;;;;4158416;28;20586;-75
2023/06/28 03:14:01;;;;;;;16.53;7.37;;;11.60;99.90;;;;;;4161133;28;20218;-74
2023/06/28 03:16:03;;;;;;;11.03;6.20;;;11.60;99.90;;;;;;4157018;28;20233;-75
2023/06/28 03:18:06;;;;;;;13.33;6.87;;;11.60;99.90;;;;;;4155986;28;20232;-74
2023/06/28 03:20:09;;;;;;;18.67;7.40;;;11.60;99.90;;;;;;4163433;28;20209;-75
2023/06/28 03:22:11;;;;;;;14.40;7.03;;;11.60;99.90;;;;;;4160009;28;20324;-76
2023/06/28 03:24:13;;;;;;;17.70;7.10;;;11.60;99.90;;;;;;4156632;28;20240;-75
2023/06/28 03:26:15;;;;;;;11.13;6.73;;;11.50;99.90;;;;;;4154823;28;20286;-76
2023/06/28 03:28:17;;;;;;;12.80;6.57;;;11.50;99.90;;;;;;4157232;28;20219;-76
2023/06/28 03:30:19;;;;;;;12.67;6.63;;;11.50;99.90;;;;;;4157185;28;20568;-75
2023/06/28 03:32:21;;;;;;;15.27;7.27;;;11.50;99.90;;;;;;4160659;28;20206;-73
2023/06/28 03:34:24;;;;;;;15.43;7.87;;;11.60;99.90;;;;;;4160700;28;20210;-76
2023/06/28 03:36:27;;;;;;;14.00;7.73;;;11.50;99.90;;;;;;4156051;28;20239;-75
2023/06/28 03:38:32;;;;;;;14.83;7.57;;;11.50;99.90;;;;;;4160262;28;20417;-74
2023/06/28 03:40:34;;;;;;;18.93;7.73;;;11.50;99.90;;;;;;4161387;28;20239;-76
2023/06/28 03:42:36;;;;;;;15.60;8.60;;;11.60;99.90;;;;;;4157935;28;20205;-76
2023/06/28 03:44:37;;;;;;;16.43;7.37;;;11.60;99.90;;;;;;4163300;28;20216;-76
2023/06/28 03:46:39;;;;;;;15.10;7.43;;;11.40;99.90;;;;;;4158930;28;20236;-76
2023/06/28 03:48:42;;;;;;;12.10;7.97;;;11.60;99.90;;;;;;4160166;28;20209;-76
2023/06/28 03:50:45;;;;;;;13.17;6.70;;;11.60;99.90;;;;;;4162298;28;20738;-76
2023/06/28 03:52:47;;;;;;;12.77;6.87;;;11.60;99.90;;;;;;4161918;28;20336;-74
2023/06/28 03:54:49;;;;;;;16.37;7.63;;;11.60;99.90;;;;;;4159332;28;20213;-74
2023/06/28 03:56:51;;;;;;;12.17;7.03;;;11.60;99.90;;;;;;4156826;28;20230;-74
2023/06/28 03:58:53;;;;;;;15.40;7.30;;;11.60;99.90;;;;;;4158679;28;20241;-73
2023/06/28 04:00:54;;;;;;;17.97;8.13;;;11.60;99.90;;;;;;4163795;28;20593;-73
2023/06/28 04:02:56;;;;;;;18.47;7.30;;;11.50;99.90;;;;;;4156916;28;20301;-76
2023/06/28 04:04:58;;;;;;;19.10;7.43;;;11.60;99.90;;;;;;4158215;28;20287;-75
2023/06/28 04:07:02;;;;;;;15.47;7.70;;;11.60;99.90;;;;;;4158755;28;20283;-75
2023/06/28 04:09:04;;;;;;;14.17;7.73;;;11.50;99.90;;;;;;4159945;28;20223;-75
2023/06/28 04:11:06;;;;;;;13.80;8.03;;;11.60;99.90;;;;;;4161088;28;20297;-74
2023/06/28 04:13:07;;;;;;;10.80;6.73;;;11.60;99.90;;;;;;4157761;28;20214;-75
2023/06/28 04:15:10;;;;;;;13.87;8.00;;;11.60;99.90;;;;;;4162588;28;20297;-72
2023/06/28 04:17:12;;;;;;;16.10;8.27;;;11.70;99.90;;;;;;4160281;28;20230;-72
2023/06/28 04:19:14;;;;;;;22.97;8.40;;;11.70;99.90;;;;;;4165503;28;20317;-72
2023/06/28 04:21:16;;;;;;;20.30;8.40;;;11.80;99.90;;;;;;4166305;28;20334;-72
2023/06/28 04:23:19;;;;;;;14.73;8.67;;;11.80;99.90;;;;;;4165984;28;20651;-72
2023/06/28 04:25:21;;;;;;;18.17;8.90;;;11.80;99.90;;;;;;4157164;28;20234;-73
2023/06/28 04:27:23;;;;;;;12.87;8.37;;;11.80;99.90;;;;;;4161935;28;20320;-73
2023/06/28 04:29:25;;;;;;;13.30;7.97;;;11.80;99.90;;;;;;4162420;28;20298;-72
2023/06/28 04:31:27;;;;;;;11.37;7.40;;;11.80;99.90;;;;;;4164078;28;20222;-73
2023/06/28 04:33:30;;;;;;;14.20;8.40;;;11.80;99.90;;;;;;4149414;28;20659;-72
2023/06/28 04:35:34;;;;;;;14.23;8.00;;;11.90;99.90;;;;;;4157800;28;20213;-73
2023/06/28 04:37:39;;;;;;;17.73;8.33;;;11.90;99.90;;;;;;4162391;28;20215;-73
2023/06/28 04:39:43;;;;;;;15.47;8.13;;;11.90;99.90;;;;;;4162328;28;20233;-73
2023/06/28 04:41:46;;;;;;;12.57;8.47;;;11.90;99.90;;;;;;4159504;28;20234;-73
2023/06/28 04:43:48;;;;;;;29.77;8.63;;;12.00;99.90;;;;;;4157256;28;20218;-73
2023/06/28 04:45:50;;;;;;;14.70;7.87;;;12.00;99.90;;;;;;4162338;28;20805;-73
2023/06/28 04:47:52;;;;;;;13.73;7.87;;;12.00;99.90;;;;;;4161530;28;20301;-73
2023/06/28 04:49:55;;;;;;;19.17;7.97;;;12.00;99.90;;;;;;4161151;28;20212;-73
2023/06/28 04:51:57;;;;;;;19.73;7.97;;;12.00;99.90;;;;;;4163830;28;20204;-73
2023/06/28 04:53:59;;;;;;;19.53;7.43;;;12.00;99.90;;;;;;4160778;28;20252;-73
2023/06/28 04:56:03;;;;;;;16.53;8.20;;;12.00;99.90;;;;;;4167320;28;20320;-73
2023/06/28 04:58:06;;;;;;;14.57;7.90;;;12.00;99.90;;;;;;4152768;28;20275;-73
2023/06/28 05:00:11;;;;;;;17.50;8.17;;;12.10;99.90;;;;;;4159356;28;20308;-73
2023/06/28 05:02:14;;;;;;;14.30;7.30;;;12.10;99.90;;;;;;4164437;28;20237;-74
2023/06/28 05:04:16;;;;;;;23.87;8.20;;;12.20;99.90;;;;;;4158799;28;20206;-73
2023/06/28 05:06:19;;;;;;;16.63;8.90;;;12.20;99.90;;;;;;4161947;28;20699;-73
2023/06/28 05:08:20;;;;;;;14.80;7.90;;;12.20;99.90;;;;;;4159741;28;20238;-73
2023/06/28 05:10:24;;;;;;;18.03;8.20;;;12.30;99.90;;;;;;4162728;28;20214;-73
2023/06/28 05:12:27;;;;;;;14.93;7.37;;;12.30;99.90;;;;;;4159968;28;20577;-74
2023/06/28 05:14:30;;;;;;;21.50;8.37;;;12.30;99.90;;;;;;4161582;28;20230;-73
2023/06/28 05:16:32;;;;;;;16.27;7.10;;;12.40;99.90;;;;;;4153685;28;20296;-74
2023/06/28 05:18:34;;;;;;;16.90;7.57;;;12.40;99.90;;;;;;4159381;28;20252;-73
2023/06/28 05:20:35;;;;;;;19.53;7.27;;;12.40;99.90;;;;;;4168301;28;20213;-73
2023/06/28 05:22:48;;;;;;;14.63;6.50;;;12.40;99.90;;;;;;4163314;28;20947;-73
2023/06/28 05:24:50;;;;;;;16.17;6.13;;;12.50;99.90;;;;;;4161621;28;20217;-73
2023/06/28 05:26:52;;;;;;;13.27;7.00;;;12.50;99.90;;;;;;4163276;28;20238;-73
2023/06/28 05:28:55;;;;;;;12.70;6.80;;;12.50;99.90;;;;;;4161970;28;20632;-73
2023/06/28 05:30:57;;;;;;;10.47;6.50;;;12.50;99.90;;;;;;4165275;28;20209;-73
2023/06/28 05:33:02;;;;;;;15.33;5.90;;;12.60;99.90;;;;;;4158834;28;20220;-72
2023/06/28 05:35:05;;;;;;;12.63;5.70;;;12.60;99.90;;;;;;4163033;28;20664;-73
2023/06/28 05:37:07;;;;;;;23.40;6.67;;;12.70;99.90;;;;;;4161032;28;20262;-73
2023/06/28 05:39:09;;;;;;;20.57;6.47;;;12.70;99.90;;;;;;4164434;28;20306;-73
2023/06/28 05:41:14;;;;;;;11.33;5.93;;;12.70;99.90;;;;;;4162070;28;20214;-73
2023/06/28 05:43:16;;;;;;;17.77;6.27;;;12.80;99.90;;;;;;4162112;28;20301;-73
2023/06/28 05:45:20;;;;;;;15.17;6.10;;;12.80;99.90;;;;;;4168522;28;20575;-73
2023/06/28 05:47:22;;;;;;;20.57;6.03;;;12.80;99.90;;;;;;4159468;28;20840;-73
2023/06/28 05:49:23;;;;;;;19.03;6.17;;;12.90;99.90;;;;;;4163134;28;20214;-73
2023/06/28 05:51:25;;;;;;;13.07;5.57;;;12.80;99.90;;;;;;4167588;28;20305;-73
2023/06/28 05:53:29;;;;;;;12.43;6.00;;;13.00;99.90;;;;;;4163118;28;20294;-73
2023/06/28 05:55:31;;;;;;;13.60;6.30;;;13.00;99.90;;;;;;4166326;28;20201;-73
2023/06/28 05:57:32;;;;;;;11.20;6.03;;;13.00;99.90;;;;;;4161125;28;20211;-73
2023/06/28 05:59:34;;;;;;;17.83;6.33;;;13.10;99.90;;;;;;4161230;28;20695;-74
2023/06/28 06:01:37;;;;;;;16.10;6.00;;;13.10;99.90;;;;;;4160721;28;20317;-74
2023/06/28 06:03:39;;;;;;;19.10;6.70;;;13.20;99.90;;;;;;4163752;28;20254;-74
2023/06/28 06:05:41;;;;;;;11.17;6.07;;;13.20;99.90;;;;;;4164904;28;20638;-74
2023/06/28 06:07:43;;;;;;;20.20;6.73;;;13.20;99.90;;;;;;4163633;28;20548;-73
2023/06/28 06:09:45;;;;;;;14.03;6.17;;;13.30;99.90;;;;;;4162386;28;20237;-74
2023/06/28 06:11:47;;;;;;;16.50;6.30;;;13.30;99.90;;;;;;4160839;28;20226;-71
2023/06/28 06:13:49;;;;;;;13.30;5.53;;;13.40;99.90;;;;;;4167398;28;20217;-74
2023/06/28 06:15:51;;;;;;;13.60;5.63;;;13.40;99.90;;;;;;4164055;28;20250;-75
2023/06/28 06:17:54;;;;;;;10.73;5.43;;;13.40;99.90;;;;;;4164885;28;20214;-75
2023/06/28 06:19:56;;;;;;;17.60;5.73;;;13.40;99.90;;;;;;4166592;28;20206;-73
2023/06/28 06:21:58;;;;;;;11.17;5.50;;;13.50;99.90;;;;;;4169653;28;20397;-74
2023/06/28 06:24:01;;;;;;;12.90;5.87;;;13.60;99.90;;;;;;4160528;28;20212;-74
2023/06/28 06:26:03;;;;;;;18.87;5.73;;;13.60;99.90;;;;;;4157827;28;20236;-75
2023/06/28 06:28:05;;;;;;;14.80;5.33;;;13.70;99.90;;;;;;4168286;28;20214;-75
2023/06/28 06:30:10;;;;;;;23.43;6.13;;;13.70;99.90;;;;;;4164398;28;20306;-73
2023/06/28 06:32:12;;;;;;;13.40;5.83;;;13.70;99.90;;;;;;4165032;28;20222;-74
2023/06/28 06:34:15;;;;;;;11.03;5.33;;;13.80;99.90;;;;;;4161541;28;20233;-74
2023/06/28 06:36:17;;;;;;;13.70;5.53;;;13.80;99.90;;;;;;4163321;28;20310;-75
2023/06/28 06:38:19;;;;;;;14.87;5.40;;;13.80;99.90;;;;;;4163618;28;20310;-74
2023/06/28 06:40:21;;;;;;;13.90;5.77;;;13.90;99.90;;;;;;4162427;28;20306;-74
2023/06/28 06:42:23;;;;;;;11.10;6.10;;;13.90;99.90;;;;;;4161646;28;20331;-74
2023/06/28 06:44:24;;;;;;;12.23;6.30;;;13.90;99.90;;;;;;4164921;28;20321;-74
2023/06/28 06:46:26;;;;;;;13.77;5.73;;;14.00;99.90;;;;;;4153239;28;20247;-74
2023/06/28 06:48:28;;;;;;;14.70;5.40;;;14.10;99.90;;;;;;4161576;28;20627;-74
2023/06/28 06:50:31;;;;;;;16.00;5.47;;;14.20;99.90;;;;;;4162757;28;20613;-74
2023/06/28 06:52:34;;;;;;;16.20;5.77;;;14.20;99.90;;;;;;4163596;28;20199;-74
2023/06/28 06:54:37;;;;;;;15.43;5.27;;;14.30;99.90;;;;;;4158717;28;20273;-76
2023/06/28 06:56:39;;;;;;;15.63;5.70;;;14.40;99.90;;;;;;4167662;28;20232;-74
2023/06/28 06:58:41;;;;;;;16.40;5.57;;;14.40;99.90;;;;;;4158123;28;20303;-74
2023/06/28 07:00:42;;;;;;;18.13;5.00;;;14.40;99.90;;;;;;4161965;28;20215;-74
2023/06/28 07:02:44;;;;;;;9.30;4.60;;;14.50;99.90;;;;;;4163118;28;20219;-74
2023/06/28 07:04:46;;;;;;;16.47;5.20;;;14.60;99.90;;;;;;4162033;28;20213;-75
2023/06/28 07:06:49;;;;;;;13.03;5.23;;;14.70;99.90;;;;;;4161602;28;20328;-75
2023/06/28 07:08:51;;;;;;;13.73;5.00;;;14.70;99.90;;;;;;4166442;28;20246;-74
2023/06/28 07:10:55;;;;;;;12.47;5.27;;;14.80;99.90;;;;;;4165483;28;20220;-74
2023/06/28 07:12:58;;;;;;;13.53;4.20;;;14.90;99.90;;;;;;4158765;28;20307;-74
2023/06/28 07:14:59;;;;;;;13.90;4.80;;;15.00;99.90;;;;;;4165706;28;20214;-72
2023/06/28 07:17:01;;;;;;;12.40;4.30;;;15.10;99.90;;;;;;4171692;28;20256;-72
2023/06/28 07:19:05;;;;;;;12.73;3.93;;;15.10;99.90;;;;;;4164531;28;20240;-72
2023/06/28 07:21:07;;;;;;;7.57;3.90;;;15.20;99.90;;;;;;4165266;28;20213;-72
2023/06/28 07:23:10;;;;;;;12.47;4.33;;;15.10;99.90;;;;;;4169152;28;20235;-74
2023/06/28 07:25:12;;;;;;;9.93;3.60;;;15.10;99.90;;;;;;4169215;28;20229;-73
2023/06/28 07:27:14;;;;;;;10.53;3.60;;;15.10;99.90;;;;;;4171752;28;20318;-73
2023/06/28 07:29:16;;;;;;;10.13;3.60;;;15.10;99.90;;;;;;4165497;28;20261;-72
2023/06/28 07:31:18;;;;;;;7.67;3.50;;;15.10;99.90;;;;;;4167581;28;20205;-72
2023/06/28 07:33:20;;;;;;;11.50;4.17;;;15.10;99.90;;;;;;4165507;28;20315;-72
2023/06/28 07:35:22;;;;;;;14.60;4.00;;;15.10;99.90;;;;;;4163164;28;20311;-74
2023/06/28 07:37:24;;;;;;;14.93;4.30;;;15.10;99.90;;;;;;4165508;28;20235;-72
2023/06/28 07:39:27;;;;;;;9.27;3.50;;;15.20;99.90;;;;;;4158103;28;20310;-74
2023/06/28 07:41:29;;;;;;;10.27;4.10;;;15.20;99.90;;;;;;4159242;28;20719;-72
2023/06/28 07:43:31;;;;;;;13.83;4.00;;;15.30;99.90;;;;;;4156280;28;20234;-71
2023/06/28 07:45:33;;;;;;;11.37;3.90;;;15.30;99.90;;;;;;4162477;28;20213;-72
2023/06/28 07:47:36;;;;;;;5.37;3.57;;;15.30;99.90;;;;;;4161595;28;20300;-72
2023/06/28 07:49:38;;;;;;;9.33;3.10;;;15.30;99.90;;;;;;4156298;28;20212;-73
2023/06/28 07:51:40;;;;;;;12.83;3.40;;;15.40;99.90;;;;;;4157236;28;20219;-72
2023/06/28 07:53:42;;;;;;;9.77;3.27;;;15.50;99.90;;;;;;4157238;28;20697;-72
2023/06/28 07:55:45;;;;;;;8.00;2.40;;;15.50;99.90;;;;;;4161306;28;20221;-73
2023/06/28 07:57:47;;;;;;;9.87;2.70;;;15.40;99.90;;;;;;4162379;28;20234;-73
2023/06/28 07:59:49;;;;;;;10.13;3.07;;;15.50;99.90;;;;;;4163412;28;20222;-73
2023/06/28 08:01:51;;;;;;;6.30;3.03;;;15.50;99.90;;;;;;4162294;28;20241;-74
2023/06/28 08:03:53;;;;;;;7.67;3.20;;;15.50;99.90;;;;;;4158891;28;20262;-74
2023/06/28 08:05:55;;;;;;;9.20;2.60;;;15.60;99.90;;;;;;4156936;28;20310;-74
2023/06/28 08:07:57;;;;;;;7.77;2.83;;;15.70;99.90;;;;;;4165648;28;20217;-73
2023/06/28 08:09:59;;;;;;;8.93;2.20;;;15.70;99.90;;;;;;4162498;28;20219;-73
2023/06/28 08:12:02;;;;;;;7.37;2.10;;;15.70;99.90;;;;;;4160924;28;20298;-73
2023/06/28 08:14:04;;;;;;;4.40;2.10;;;15.80;99.90;;;;;;4166050;28;20665;-74
2023/06/28 08:16:06;;;;;;;5.43;2.17;;;15.80;99.90;;;;;;4156952;28;20735;-74
2023/06/28 08:18:09;;;;;;;7.87;2.87;;;15.80;99.90;;;;;;4163369;28;20624;-74
2023/06/28 08:20:11;;;;;;;6.33;2.20;;;15.90;99.90;;;;;;4167083;28;20888;-74
2023/06/28 08:22:13;;;;;;;7.50;1.90;;;16.10;99.90;;;;;;4164370;28;20299;-73
2023/06/28 08:24:16;;;;;;;4.97;2.10;;;16.30;99.90;;;;;;4161181;28;20302;-75
2023/06/28 08:26:18;;;;;;;5.97;1.43;;;16.40;99.90;;;;;;4156661;28;20224;-74
2023/06/28 08:28:22;;;;;;;4.83;1.40;;;16.50;99.90;;;;;;4160091;28;20207;-74
2023/06/28 08:30:24;;;;;;;2.67;1.30;;;16.50;99.90;;;;;;4160265;28;20207;-74
2023/06/28 08:32:26;;;;;;;6.27;1.67;;;16.50;99.90;;;;;;4161404;28;20290;-74
2023/06/28 08:34:27;;;;;;;6.47;1.97;;;16.50;99.90;;;;;;4160312;28;20235;-74
2023/06/28 08:36:29;;;;;;;4.83;1.67;;;16.50;99.90;;;;;;4162700;28;20658;-75
2023/06/28 08:38:31;;;;;;;4.33;1.50;;;16.50;99.90;;;;;;4166948;28;20649;-75
2023/06/28 08:40:33;;;;;;;3.87;1.40;;;16.60;99.90;;;;;;4157783;28;20213;-75
2023/06/28 08:42:35;;;;;;;4.57;1.13;;;16.60;99.90;;;;;;4155378;28;20269;-75
2023/06/28 08:44:39;;;;;;;3.97;1.33;;;16.70;99.90;;;;;;4166480;28;20238;-75
2023/06/28 08:46:44;;;;;;;5.07;1.30;;;16.70;99.90;;;;;;4159698;28;20235;-75
2023/06/28 08:48:47;;;;;;;4.57;1.20;;;16.90;99.90;;;;;;4161552;28;20697;-76
2023/06/28 08:50:50;;;;;;;2.83;1.30;;;17.00;99.90;;;;;;4158708;28;20972;-76
2023/06/28 08:52:52;;;;;;;5.43;1.33;;;17.10;99.90;;;;;;4160525;28;20218;-76
2023/06/28 08:54:54;;;;;;;6.03;1.87;;;17.10;99.90;;;;;;4162181;28;20220;-75
2023/06/28 08:56:57;;;;;;;4.20;1.40;;;17.00;99.90;;;;;;4167490;28;20248;-75
2023/06/28 08:58:59;;;;;;;3.40;1.10;;;17.00;99.90;;;;;;4164920;28;20215;-75
2023/06/28 09:01:03;;;;;;;5.33;1.70;;;17.00;99.90;;;;;;4169996;28;20226;-77
2023/06/28 09:03:05;;;;;;;4.17;1.30;;;16.90;99.90;;;;;;4167257;28;20257;-75
2023/06/28 09:05:08;;;;;;;3.97;1.47;;;16.90;99.90;;;;;;4169278;28;20297;-76
2023/06/28 09:07:10;;;;;;;5.57;1.50;;;17.00;99.90;;;;;;4162569;28;20232;-75
2023/06/28 09:09:14;;;;;;;4.80;1.13;;;17.10;99.90;;;;;;4164660;28;20249;-76
2023/06/28 09:11:17;;;;;;;3.83;1.20;;;17.40;99.90;;;;;;4171329;28;20270;-75
2023/06/28 09:13:21;;;;;;;6.93;1.87;;;17.50;99.90;;;;;;4163179;28;20203;-75
2023/06/28 09:15:23;;;;;;;5.83;1.20;;;17.70;99.90;;;;;;4169292;28;20213;-76
2023/06/28 09:17:26;;;;;;;3.40;1.30;;;17.70;99.90;;;;;;4166310;28;20233;-76
2023/06/28 09:19:28;;;;;;;4.00;1.20;;;17.70;99.90;;;;;;4162791;28;20227;-76
2023/06/28 09:21:31;;;;;;;3.13;1.30;;;17.60;99.90;;;;;;4166318;28;20731;-74
2023/06/28 09:23:35;;;;;;;4.33;1.53;;;17.50;99.90;;;;;;4164800;28;20231;-75
2023/06/28 09:25:36;;;;;;;5.27;1.27;;;17.60;99.90;;;;;;4169204;28;20212;-77
2023/06/28 09:27:38;;;;;;;3.73;1.73;;;17.80;99.90;;;;;;4164845;28;20236;-74
2023/06/28 09:29:40;;;;;;;11.37;1.80;;;17.90;99.90;;;;;;4161263;28;21079;-74
2023/06/28 09:31:44;;;;;;;3.10;1.20;;;17.90;99.90;;;;;;4166272;28;20222;-74
2023/06/28 09:33:54;;;;;;;6.33;1.43;;;18.10;99.90;;;;;;4165243;28;20209;-74
2023/06/28 09:35:56;;;;;;;5.43;1.33;;;18.20;99.90;;;;;;4165774;28;20241;-75
2023/06/28 09:38:04;;;;;;;4.73;1.60;;;18.30;99.90;;;;;;4165131;28;20559;-78
2023/06/28 09:40:07;;;;;;;7.47;1.90;;;18.30;99.90;;;;;;4165412;28;20263;-78
2023/06/28 09:42:09;;;;;;;4.60;1.90;;;18.40;99.90;;;;;;4166335;28;20224;-76
2023/06/28 09:44:30;;;;;;;8.60;1.43;;;18.40;99.90;;;;;;4166573;28;20270;-75
2023/06/28 09:46:35;;;;;;;1.90;0.90;;;18.40;99.90;;;;;;4157120;28;20249;-74
2023/06/28 09:48:37;;;;;;;4.57;1.20;;;18.50;99.90;;;;;;4164308;28;20209;-74
2023/06/28 09:50:44;;;;;;;4.23;1.10;;;18.50;99.90;;;;;;4164093;28;20271;-75
2023/06/28 09:52:46;;;;;;;3.30;1.30;;;18.60;99.90;;;;;;4159926;28;20243;-75
2023/06/28 09:54:50;;;;;;;4.40;1.33;;;18.70;99.90;;;;;;4165806;28;20213;-76
2023/06/28 09:56:54;;;;;;;8.33;1.33;;;18.80;99.90;;;;;;4161609;28;20270;-74
2023/06/28 09:58:58;;;;;;;3.33;1.27;;;18.90;99.90;;;;;;4161328;28;20215;-76
2023/06/28 10:01:01;;;;;;;4.20;1.00;;;19.00;99.90;;;;;;4161992;28;20612;-74
2023/06/28 10:03:06;;;;;;;4.07;1.00;;;19.10;99.90;;;;;;4155728;28;20317;-75
2023/06/28 10:05:10;;;;;;;2.00;1.00;;;19.20;99.90;;;;;;4158936;28;20214;-74
2023/06/28 10:07:14;;;;;;;2.63;1.20;;;19.30;99.90;;;;;;4165875;28;20226;-74
2023/06/28 10:09:17;;;;;;;3.93;1.30;;;19.40;99.90;;;;;;4157909;28;20800;-73
2023/06/28 10:11:19;;;;;;;6.03;1.10;;;19.30;99.90;;;;;;4162692;28;20662;-77
2023/06/28 10:13:22;;;;;;;3.50;1.20;;;19.30;99.90;;;;;;4161172;28;20298;-76
2023/06/28 10:15:27;;;;;;;3.63;1.00;;;19.50;99.90;;;;;;4158098;28;20213;-73
2023/06/28 10:17:31;;;;;;;5.03;1.50;;;19.50;99.90;;;;;;4162005;28;20233;-75
2023/06/28 10:19:34;;;;;;;4.00;1.40;;;19.70;99.90;;;;;;4158186;28;20221;-73
2023/06/28 10:21:36;;;;;;;4.67;1.60;;;19.90;99.90;;;;;;4155825;28;20592;-73
2023/06/28 10:23:42;;;;;;;3.60;1.20;;;19.90;99.90;;;;;;4165572;28;20222;-73
2023/06/28 10:25:46;;;;;;;3.07;1.20;;;19.90;99.90;;;;;;4164388;28;20217;-73
2023/06/28 10:27:48;;;;;;;2.60;1.17;;;20.00;99.90;;;;;;4161867;28;20217;-73
2023/06/28 10:29:52;;;;;;;1.67;1.20;;;20.00;99.90;;;;;;4161438;28;20207;-74
2023/06/28 10:31:55;;;;;;;4.60;1.27;;;20.00;99.90;;;;;;4160560;28;20297;-73